USHH 142100Z 24004MPS CAVOK 24/15 Q1009 R24/010060 TEMPO 5000 -TSRA BKN016CB
QNH:(hPa/inHg/mmHg)1009 / 29.8 / 757
QFE:(hPa/inHg/mmHg)1004 / 29.64 / 753
Temperature24
Dew Point15
Visibility5000
WeatherCAVOK;Light Thunderstorm Rain
Cloud CoverBKN (1600);
Transition Altitude3000 ft.
Transition LevelFL50
SQUAWK